Jonni Ritscher — A8JT7 — position and weather

sailwx.info

Track history (hours):
 
Tides and Currents Weather Stations Pressure Air Temp Water Temp Dewpoint Dewpoint Depression Visibility Wind Speed Wind Dir Waves Ship Positions

Jonni Ritscher

Last reported at 2014-Jul-31 23:33 UTC. Time now 2014-Jul-31 23:43 UTC.
Position N 52°21' E 003°52'.

Length 178 m; draft 9.7 m.

Type: Ship. MMSI: 636091136.

Date/timePositionNaut miles runAvg speedWind from/ knotsBaromVisibWave heightAir tempDewpointWater temp
2014-Jul-31 23:33N 52°21' E 003°52'1413.6
2014-Jul-31 22:33N 52°08' E 003°54'9 9.2
2014-Jul-31 21:33N 51°60' E 004°02'3 2.7
2014-Jul-31 20:33N 51°58' E 004°04'0 0.0
2014-Jul-31 19:33N 51°58' E 004°04'0 0.0
2014-Jul-31 18:30N 51°58' E 004°04'0 0.0
2014-Jul-31 17:29N 51°58' E 004°04'0 0.0
2014-Jul-31 16:29N 51°58' E 004°04'0 0.0
2014-Jul-31 15:29N 51°58' E 004°04'0 0.0
2014-Jul-31 14:31N 51°58' E 004°04'0 0.0
2014-Jul-31 13:28N 51°58' E 004°04'0 0.0
2014-Jul-31 12:33N 51°58' E 004°04'0 0.0
2014-Jul-31 11:33N 51°58' E 004°04'0 0.0
2014-Jul-31 10:32N 51°58' E 004°04'0 0.5
2014-Jul-31 09:32N 51°57' E 004°05'0 0.1
2014-Jul-31 08:33N 51°57' E 004°05'1 0.9
2014-Jul-31 07:33N 51°57' E 004°03'0 0.0
2014-Jul-31 06:32N 51°57' E 004°03'0 0.0
2014-Jul-31 05:32N 51°57' E 004°03'0 0.0
2014-Jul-31 04:31N 51°57' E 004°03'0 0.0
2014-Jul-31 03:31N 51°57' E 004°03'0 0.0
2014-Jul-31 02:31N 51°57' E 004°03'0 0.0
2014-Jul-31 01:33N 51°57' E 004°03'0 0.0
2014-Jul-31 00:33N 51°57' E 004°03'0 0.0
2014-Jul-30 23:32N 51°57' E 004°03'0 0.0
2014-Jul-30 22:29N 51°57' E 004°03'0 0.0
2014-Jul-30 21:31N 51°57' E 004°03'0 0.0
2014-Jul-30 20:31N 51°57' E 004°03'0 0.0
2014-Jul-30 19:31N 51°57' E 004°03'0 0.0
2014-Jul-30 18:33N 51°57' E 004°03'0 0.0
2014-Jul-30 17:33N 51°57' E 004°03'0 0.0
2014-Jul-30 16:32N 51°57' E 004°03'0 0.0
2014-Jul-30 15:32N 51°57' E 004°03'0 0.0
2014-Jul-30 14:31N 51°57' E 004°03'0 0.0
2014-Jul-30 13:31N 51°57' E 004°03'0 0.0
2014-Jul-30 12:30N 51°57' E 004°03'0 0.0
2014-Jul-30 11:33N 51°57' E 004°03'0 0.0
2014-Jul-30 10:33N 51°57' E 004°03'0 0.0
2014-Jul-30 09:32N 51°57' E 004°03'1 0.9
2014-Jul-30 08:34N 51°57' E 004°05'10 9.8
2014-Jul-30 07:32N 51°60' E 003°49'11 3.4
2014-Jul-30 04:21N 51°54' E 003°34'0 0.0
2014-Jul-30 03:27N 51°54' E 003°34'0 0.0
2014-Jul-30 02:30N 51°54' E 003°34'0 0.1
2014-Jul-30 01:24N 51°54' E 003°34'7 8.9
2014-Jul-30 00:33N 51°53' E 003°22'1414.3
2014-Jul-29 23:33N 51°50' E 002°59'1414.4
2014-Jul-29 22:33N 51°39' E 002°44'1514.7
2014-Jul-29 21:33N 51°24' E 002°43'1515.2
2014-Jul-29 20:33N 51°24' E 003°07'5 4.8
2014-Jul-29 19:33N 51°20' E 003°12'0 0.0
2014-Jul-29 18:29N 51°20' E 003°12'0 0.0
2014-Jul-29 17:14N 51°20' E 003°12'0 0.0
2014-Jul-29 16:13N 51°20' E 003°12'0 0.0
2014-Jul-29 15:16N 51°20' E 003°12'0 0.0
2014-Jul-29 14:28N 51°20' E 003°12'0 0.0
2014-Jul-29 13:33N 51°20' E 003°12'0 0.0
2014-Jul-29 12:30N 51°20' E 003°12'0 0.0
2014-Jul-29 11:32N 51°20' E 003°12'0 0.0
2014-Jul-29 10:32N 51°20' E 003°12'0 0.0
2014-Jul-29 09:32N 51°20' E 003°12'0 0.0
2014-Jul-29 08:31N 51°20' E 003°12'0 0.0
2014-Jul-29 07:25N 51°20' E 003°12'0 0.0
2014-Jul-29 06:30N 51°20' E 003°12'0 0.0
2014-Jul-29 05:33N 51°20' E 003°12'8 7.7
2014-Jul-29 04:34N 51°24' E 003°01'1615.8
2014-Jul-29 03:33N 51°22' E 002°36'1515.1
2014-Jul-29 02:33N 51°19' E 002°12'1212.0
2014-Jul-29 01:33N 51°30' E 002°04'1111.1
2014-Jul-29 00:34N 51°38' E 002°15'11313.9
2014-Jul-28 16:28N 53°04' E 004°14'1414.6
2014-Jul-28 15:32N 53°15' E 004°27'1615.8
2014-Jul-28 14:33N 53°30' E 004°35'1915.8
2014-Jul-28 13:21N 53°48' E 004°45'1315.5
2014-Jul-28 12:31N 54°01' E 004°51'1515.1
2014-Jul-28 11:33N 54°13' E 005°04'14115.6
2014-Jul-28 02:32N 56°12' E 007°16'1616.3
2014-Jul-28 01:34N 56°26' E 007°30'10915.5
2014-Jul-27 18:33N 57°46' E 009°46'1615.9
2014-Jul-27 17:34N 57°50' E 010°14'1615.9
2014-Jul-27 16:33N 57°49' E 010°44'1616.0
2014-Jul-27 15:34N 57°38' E 011°06'1616.2
2014-Jul-27 14:34N 57°26' E 011°27'1716.8
2014-Jul-27 13:34N 57°10' E 011°38'1716.6
2014-Jul-27 12:33N 56°55' E 011°48'1515.3
2014-Jul-27 11:33N 56°39' E 011°48'1716.4
2014-Jul-27 10:33N 56°25' E 011°33'1616.5
2014-Jul-27 09:33N 56°11' E 011°17'1616.5
2014-Jul-27 08:33N 55°58' E 011°01'1716.8
2014-Jul-27 07:31N 55°42' E 010°47'2218.8
2014-Jul-27 06:22N 55°22' E 011°02'1316.4
2014-Jul-27 05:33N 55°08' E 011°03'1514.9
2014-Jul-27 04:33N 54°55' E 010°54'1414.3
2014-Jul-27 03:33N 54°40' E 010°57'1717.1
2014-Jul-27 02:33N 54°33' E 011°23'1716.6
2014-Jul-27 01:33N 54°26' E 011°49'1514.8
2014-Jul-27 00:33N 54°31' E 012°14'1716.6
2014-Jul-26 23:33N 54°43' E 012°34'1616.4
2014-Jul-26 22:33N 54°50' E 012°59'1716.9
2014-Jul-26 21:33N 54°56' E 013°26'1716.9
2014-Jul-26 20:34N 55°02' E 013°54'1616.4
2014-Jul-26 19:34N 55°13' E 014°16'1717.0
2014-Jul-26 18:33N 55°26' E 014°35'1716.9
2014-Jul-26 17:34N 55°35' E 015°00'1717.4
2014-Jul-26 16:34N 55°43' E 015°27'1817.7
2014-Jul-26 15:34N 55°52' E 015°55'1817.6
2014-Jul-26 14:33N 56°01' E 016°22'1717.5
2014-Jul-26 13:33N 56°10' E 016°48'2117.0
2014-Jul-26 12:20N 56°23' E 017°18'1317.1
2014-Jul-26 11:33N 56°31' E 017°37'2317.2
2014-Jul-26 10:12N 56°45' E 018°11'1117.1
2014-Jul-26 09:33N 56°52' E 018°26'1717.1
2014-Jul-26 08:33N 57°05' E 018°47'1717.3
2014-Jul-26 07:33N 57°18' E 019°08'1818.0
2014-Jul-26 06:33N 57°32' E 019°29'1818.4
2014-Jul-26 05:33N 57°47' E 019°48'1717.1
2014-Jul-26 04:33N 58°01' E 020°07'1817.5
2014-Jul-26 03:32N 58°16' E 020°26'1717.4
2014-Jul-26 02:33N 58°30' E 020°44'1717.4
2014-Jul-26 01:33N 58°44' E 021°03'1717.3
2014-Jul-26 00:33N 58°59' E 021°22'1717.2
2014-Jul-25 23:33N 59°11' E 021°44'1717.3
2014-Jul-25 22:33N 59°23' E 022°10'1716.9
2014-Jul-25 21:33N 59°32' E 022°38'1917.4
2014-Jul-25 20:27N 59°38' E 023°14'1617.4
2014-Jul-25 19:33N 59°42' E 023°44'1717.5
2014-Jul-25 18:33N 59°47' E 024°17'1717.4
2014-Jul-25 17:33N 59°50' E 024°51'1717.5
2014-Jul-25 16:33N 59°53' E 025°25'1817.5
2014-Jul-25 15:33N 59°57' E 025°60'1717.5
2014-Jul-25 14:33N 60°01' E 026°33'1716.6
2014-Jul-25 13:31N 60°01' E 027°08'1817.3
2014-Jul-25 12:28N 60°10' E 027°39'1516.2
2014-Jul-25 11:33N 60°09' E 028°09'2118.0
2014-Jul-25 10:23N 60°03' E 028°49'1417.4
2014-Jul-25 09:33N 60°02' E 029°18'2612.2
2014-Jul-25 07:26N 59°54' E 030°07'3 3.8
2014-Jul-25 06:34N 59°54' E 030°14'0 0.0
2014-Jul-25 05:28N 59°54' E 030°14'0 0.0
2014-Jul-25 04:31N 59°54' E 030°14'0 0.1
2014-Jul-25 03:33N 59°54' E 030°14'0 0.1
2014-Jul-25 02:33N 59°54' E 030°14'0 0.0
2014-Jul-25 01:32N 59°54' E 030°14'0 0.0
2014-Jul-25 00:29N 59°54' E 030°14'0 0.0
2014-Jul-24 23:26N 59°54' E 030°14'0 0.1
2014-Jul-24 22:31N 59°54' E 030°14'0 0.1
2014-Jul-24 21:10N 59°54' E 030°14'0 0.0
2014-Jul-24 20:21N 59°54' E 030°14'0 0.0
2014-Jul-24 19:30N 59°54' E 030°14'0 0.0
2014-Jul-24 18:29N 59°54' E 030°14'0 0.0
2014-Jul-24 17:32N 59°54' E 030°14'0 0.0
2014-Jul-24 16:16N 59°54' E 030°14'0 0.0
2014-Jul-24 15:28N 59°54' E 030°14'0 0.1
2014-Jul-24 14:31N 59°54' E 030°14'0 0.1
2014-Jul-24 13:33N 59°54' E 030°14'0 0.1
2014-Jul-24 12:33N 59°54' E 030°14'0 0.1
2014-Jul-24 11:32N 59°54' E 030°14'0 0.0
2014-Jul-24 10:32N 59°54' E 030°14'1 1.0
2014-Jul-24 09:28N 59°53' E 030°12'0 0.1
2014-Jul-24 08:19N 59°53' E 030°12'0 0.0
2014-Jul-24 01:09N 59°53' E 030°12'0 0.0
2014-Jul-23 23:27N 59°53' E 030°12'0 0.1
2014-Jul-23 22:32N 59°53' E 030°12'0 0.0
2014-Jul-23 21:32N 59°53' E 030°12'0 0.0
2014-Jul-23 19:31N 59°53' E 030°12'0 0.0
2014-Jul-23 18:18N 59°53' E 030°12'0 0.0
2014-Jul-23 17:33N 59°53' E 030°12'0 0.0
2014-Jul-23 16:33N 59°53' E 030°12'0 0.1
2014-Jul-23 14:33N 59°53' E 030°12'8 7.2
2014-Jul-23 13:25N 59°56' E 029°56'49 5.4
2014-Jul-23 04:23N 59°40' E 028°24'36 2.2
2014-Jul-22 12:19N 60°10' E 027°45'1317.1
2014-Jul-22 11:33N 60°04' E 027°22'1616.2
2014-Jul-22 10:33N 59°59' E 026°51'1716.6
2014-Jul-22 09:33N 59°57' E 026°18'1717.0
2014-Jul-22 08:33N 59°52' E 025°45'3818.8
2014-Jul-22 06:33N 59°45' E 024°32'1818.4
2014-Jul-22 05:33N 59°40' E 023°57'1716.9
2014-Jul-22 04:33N 59°34' E 023°25'  
Track history (hours):
 
Tides and Currents Weather Stations Pressure Air Temp Water Temp Dewpoint Dewpoint Depression Visibility Wind Speed Wind Dir Waves Ship Positions

Jonni Ritscher

Last reported at 2014-Jul-31 23:33 UTC. Time now 2014-Jul-31 23:43 UTC.
Position N 52°21' E 003°52'.

Length 178 m; draft 9.7 m.

Type: Ship. MMSI: 636091136.

Date/timePositionNaut miles runAvg speedWind from/ knotsBaromVisibWave heightAir tempDewpointWater temp
2014-Jul-31 23:33N 52°21' E 003°52'1413.6
2014-Jul-31 22:33N 52°08' E 003°54'9 9.2
2014-Jul-31 21:33N 51°60' E 004°02'3 2.7
2014-Jul-31 20:33N 51°58' E 004°04'0 0.0
2014-Jul-31 19:33N 51°58' E 004°04'0 0.0
2014-Jul-31 18:30N 51°58' E 004°04'0 0.0
2014-Jul-31 17:29N 51°58' E 004°04'0 0.0
2014-Jul-31 16:29N 51°58' E 004°04'0 0.0
2014-Jul-31 15:29N 51°58' E 004°04'0 0.0
2014-Jul-31 14:31N 51°58' E 004°04'0 0.0
2014-Jul-31 13:28N 51°58' E 004°04'0 0.0
2014-Jul-31 12:33N 51°58' E 004°04'0 0.0
2014-Jul-31 11:33N 51°58' E 004°04'0 0.0
2014-Jul-31 10:32N 51°58' E 004°04'0 0.5
2014-Jul-31 09:32N 51°57' E 004°05'0 0.1
2014-Jul-31 08:33N 51°57' E 004°05'1 0.9
2014-Jul-31 07:33N 51°57' E 004°03'0 0.0
2014-Jul-31 06:32N 51°57' E 004°03'0 0.0
2014-Jul-31 05:32N 51°57' E 004°03'0 0.0
2014-Jul-31 04:31N 51°57' E 004°03'0 0.0
2014-Jul-31 03:31N 51°57' E 004°03'0 0.0
2014-Jul-31 02:31N 51°57' E 004°03'0 0.0
2014-Jul-31 01:33N 51°57' E 004°03'0 0.0
2014-Jul-31 00:33N 51°57' E 004°03'0 0.0
2014-Jul-30 23:32N 51°57' E 004°03'0 0.0
2014-Jul-30 22:29N 51°57' E 004°03'0 0.0
2014-Jul-30 21:31N 51°57' E 004°03'0 0.0
2014-Jul-30 20:31N 51°57' E 004°03'0 0.0
2014-Jul-30 19:31N 51°57' E 004°03'0 0.0
2014-Jul-30 18:33N 51°57' E 004°03'0 0.0
2014-Jul-30 17:33N 51°57' E 004°03'0 0.0
2014-Jul-30 16:32N 51°57' E 004°03'0 0.0
2014-Jul-30 15:32N 51°57' E 004°03'0 0.0
2014-Jul-30 14:31N 51°57' E 004°03'0 0.0
2014-Jul-30 13:31N 51°57' E 004°03'0 0.0
2014-Jul-30 12:30N 51°57' E 004°03'0 0.0
2014-Jul-30 11:33N 51°57' E 004°03'0 0.0
2014-Jul-30 10:33N 51°57' E 004°03'0 0.0
2014-Jul-30 09:32N 51°57' E 004°03'1 0.9
2014-Jul-30 08:34N 51°57' E 004°05'10 9.8
2014-Jul-30 07:32N 51°60' E 003°49'11 3.4
2014-Jul-30 04:21N 51°54' E 003°34'0 0.0
2014-Jul-30 03:27N 51°54' E 003°34'0 0.0
2014-Jul-30 02:30N 51°54' E 003°34'0 0.1
2014-Jul-30 01:24N 51°54' E 003°34'7 8.9
2014-Jul-30 00:33N 51°53' E 003°22'1414.3
2014-Jul-29 23:33N 51°50' E 002°59'1414.4
2014-Jul-29 22:33N 51°39' E 002°44'1514.7
2014-Jul-29 21:33N 51°24' E 002°43'1515.2
2014-Jul-29 20:33N 51°24' E 003°07'5 4.8
2014-Jul-29 19:33N 51°20' E 003°12'0 0.0
2014-Jul-29 18:29N 51°20' E 003°12'0 0.0
2014-Jul-29 17:14N 51°20' E 003°12'0 0.0
2014-Jul-29 16:13N 51°20' E 003°12'0 0.0
2014-Jul-29 15:16N 51°20' E 003°12'0 0.0
2014-Jul-29 14:28N 51°20' E 003°12'0 0.0
2014-Jul-29 13:33N 51°20' E 003°12'0 0.0
2014-Jul-29 12:30N 51°20' E 003°12'0 0.0
2014-Jul-29 11:32N 51°20' E 003°12'0 0.0
2014-Jul-29 10:32N 51°20' E 003°12'0 0.0
2014-Jul-29 09:32N 51°20' E 003°12'0 0.0
2014-Jul-29 08:31N 51°20' E 003°12'0 0.0
2014-Jul-29 07:25N 51°20' E 003°12'0 0.0
2014-Jul-29 06:30N 51°20' E 003°12'0 0.0
2014-Jul-29 05:33N 51°20' E 003°12'8 7.7
2014-Jul-29 04:34N 51°24' E 003°01'1615.8
2014-Jul-29 03:33N 51°22' E 002°36'1515.1
2014-Jul-29 02:33N 51°19' E 002°12'1212.0
2014-Jul-29 01:33N 51°30' E 002°04'1111.1
2014-Jul-29 00:34N 51°38' E 002°15'11313.9
2014-Jul-28 16:28N 53°04' E 004°14'1414.6
2014-Jul-28 15:32N 53°15' E 004°27'1615.8
2014-Jul-28 14:33N 53°30' E 004°35'1915.8
2014-Jul-28 13:21N 53°48' E 004°45'1315.5
2014-Jul-28 12:31N 54°01' E 004°51'1515.1
2014-Jul-28 11:33N 54°13' E 005°04'14115.6
2014-Jul-28 02:32N 56°12' E 007°16'1616.3
2014-Jul-28 01:34N 56°26' E 007°30'10915.5
2014-Jul-27 18:33N 57°46' E 009°46'1615.9
2014-Jul-27 17:34N 57°50' E 010°14'1615.9
2014-Jul-27 16:33N 57°49' E 010°44'1616.0
2014-Jul-27 15:34N 57°38' E 011°06'1616.2
2014-Jul-27 14:34N 57°26' E 011°27'1716.8
2014-Jul-27 13:34N 57°10' E 011°38'1716.6
2014-Jul-27 12:33N 56°55' E 011°48'1515.3
2014-Jul-27 11:33N 56°39' E 011°48'1716.4
2014-Jul-27 10:33N 56°25' E 011°33'1616.5
2014-Jul-27 09:33N 56°11' E 011°17'1616.5
2014-Jul-27 08:33N 55°58' E 011°01'1716.8
2014-Jul-27 07:31N 55°42' E 010°47'2218.8
2014-Jul-27 06:22N 55°22' E 011°02'1316.4
2014-Jul-27 05:33N 55°08' E 011°03'1514.9
2014-Jul-27 04:33N 54°55' E 010°54'1414.3
2014-Jul-27 03:33N 54°40' E 010°57'1717.1
2014-Jul-27 02:33N 54°33' E 011°23'1716.6
2014-Jul-27 01:33N 54°26' E 011°49'1514.8
2014-Jul-27 00:33N 54°31' E 012°14'1716.6
2014-Jul-26 23:33N 54°43' E 012°34'1616.4
2014-Jul-26 22:33N 54°50' E 012°59'1716.9
2014-Jul-26 21:33N 54°56' E 013°26'1716.9
2014-Jul-26 20:34N 55°02' E 013°54'1616.4
2014-Jul-26 19:34N 55°13' E 014°16'1717.0
2014-Jul-26 18:33N 55°26' E 014°35'1716.9
2014-Jul-26 17:34N 55°35' E 015°00'1717.4
2014-Jul-26 16:34N 55°43' E 015°27'1817.7
2014-Jul-26 15:34N 55°52' E 015°55'1817.6
2014-Jul-26 14:33N 56°01' E 016°22'1717.5
2014-Jul-26 13:33N 56°10' E 016°48'2117.0
2014-Jul-26 12:20N 56°23' E 017°18'1317.1
2014-Jul-26 11:33N 56°31' E 017°37'2317.2
2014-Jul-26 10:12N 56°45' E 018°11'1117.1
2014-Jul-26 09:33N 56°52' E 018°26'1717.1
2014-Jul-26 08:33N 57°05' E 018°47'1717.3
2014-Jul-26 07:33N 57°18' E 019°08'1818.0
2014-Jul-26 06:33N 57°32' E 019°29'1818.4
2014-Jul-26 05:33N 57°47' E 019°48'1717.1
2014-Jul-26 04:33N 58°01' E 020°07'1817.5
2014-Jul-26 03:32N 58°16' E 020°26'1717.4
2014-Jul-26 02:33N 58°30' E 020°44'1717.4
2014-Jul-26 01:33N 58°44' E 021°03'1717.3
2014-Jul-26 00:33N 58°59' E 021°22'1717.2
2014-Jul-25 23:33N 59°11' E 021°44'1717.3
2014-Jul-25 22:33N 59°23' E 022°10'1716.9
2014-Jul-25 21:33N 59°32' E 022°38'1917.4
2014-Jul-25 20:27N 59°38' E 023°14'1617.4
2014-Jul-25 19:33N 59°42' E 023°44'1717.5
2014-Jul-25 18:33N 59°47' E 024°17'1717.4
2014-Jul-25 17:33N 59°50' E 024°51'1717.5
2014-Jul-25 16:33N 59°53' E 025°25'1817.5
2014-Jul-25 15:33N 59°57' E 025°60'1717.5
2014-Jul-25 14:33N 60°01' E 026°33'1716.6
2014-Jul-25 13:31N 60°01' E 027°08'1817.3
2014-Jul-25 12:28N 60°10' E 027°39'1516.2
2014-Jul-25 11:33N 60°09' E 028°09'2118.0
2014-Jul-25 10:23N 60°03' E 028°49'1417.4
2014-Jul-25 09:33N 60°02' E 029°18'2612.2
2014-Jul-25 07:26N 59°54' E 030°07'3 3.8
2014-Jul-25 06:34N 59°54' E 030°14'0 0.0
2014-Jul-25 05:28N 59°54' E 030°14'0 0.0
2014-Jul-25 04:31N 59°54' E 030°14'0 0.1
2014-Jul-25 03:33N 59°54' E 030°14'0 0.1
2014-Jul-25 02:33N 59°54' E 030°14'0 0.0
2014-Jul-25 01:32N 59°54' E 030°14'0 0.0
2014-Jul-25 00:29N 59°54' E 030°14'0 0.0
2014-Jul-24 23:26N 59°54' E 030°14'0 0.1
2014-Jul-24 22:31N 59°54' E 030°14'0 0.1
2014-Jul-24 21:10N 59°54' E 030°14'0 0.0
2014-Jul-24 20:21N 59°54' E 030°14'0 0.0
2014-Jul-24 19:30N 59°54' E 030°14'0 0.0
2014-Jul-24 18:29N 59°54' E 030°14'0 0.0
2014-Jul-24 17:32N 59°54' E 030°14'0 0.0
2014-Jul-24 16:16N 59°54' E 030°14'0 0.0
2014-Jul-24 15:28N 59°54' E 030°14'0 0.1
2014-Jul-24 14:31N 59°54' E 030°14'0 0.1
2014-Jul-24 13:33N 59°54' E 030°14'0 0.1
2014-Jul-24 12:33N 59°54' E 030°14'0 0.1
2014-Jul-24 11:32N 59°54' E 030°14'0 0.0
2014-Jul-24 10:32N 59°54' E 030°14'1 1.0
2014-Jul-24 09:28N 59°53' E 030°12'0 0.1
2014-Jul-24 08:19N 59°53' E 030°12'0 0.0
2014-Jul-24 01:09N 59°53' E 030°12'0 0.0
2014-Jul-23 23:27N 59°53' E 030°12'0 0.1
2014-Jul-23 22:32N 59°53' E 030°12'0 0.0
2014-Jul-23 21:32N 59°53' E 030°12'0 0.0
2014-Jul-23 19:31N 59°53' E 030°12'0 0.0
2014-Jul-23 18:18N 59°53' E 030°12'0 0.0
2014-Jul-23 17:33N 59°53' E 030°12'0 0.0
2014-Jul-23 16:33N 59°53' E 030°12'0 0.1
2014-Jul-23 14:33N 59°53' E 030°12'8 7.2
2014-Jul-23 13:25N 59°56' E 029°56'49 5.4
2014-Jul-23 04:23N 59°40' E 028°24'36 2.2
2014-Jul-22 12:19N 60°10' E 027°45'1317.1
2014-Jul-22 11:33N 60°04' E 027°22'1616.2
2014-Jul-22 10:33N 59°59' E 026°51'1716.6
2014-Jul-22 09:33N 59°57' E 026°18'1717.0
2014-Jul-22 08:33N 59°52' E 025°45'3818.8
2014-Jul-22 06:33N 59°45' E 024°32'1818.4
2014-Jul-22 05:33N 59°40' E 023°57'1716.9
2014-Jul-22 04:33N 59°34' E 023°25'  

Dump ship's entire track history